createdAt,value
2017-10-26T05:37:36.280Z,2
2017-10-26T05:44:06.649Z,5
2017-10-26T05:47:06.839Z,8
2017-10-26T05:49:36.976Z,10
2017-10-26T05:52:07.164Z,13
2017-10-26T05:53:37.236Z,15
2017-10-26T05:55:07.392Z,17
2017-10-26T05:56:37.443Z,20
2017-10-26T05:58:17.260Z,22
2017-10-26T05:59:17.345Z,25
2017-10-26T06:00:17.403Z,28
2017-10-26T06:00:47.407Z,30
2017-10-26T06:01:47.423Z,32
2017-10-26T06:02:47.500Z,35
2017-10-26T06:03:47.632Z,37
2017-10-26T06:04:47.605Z,40
2017-10-26T06:05:47.669Z,43
2017-10-26T06:06:17.745Z,45
2017-10-26T06:06:47.730Z,47
2017-10-26T06:07:17.757Z,50
2017-10-26T06:07:47.779Z,52
2017-10-26T06:08:17.820Z,58
2017-10-26T06:08:47.856Z,60
2017-10-26T06:09:17.914Z,62
2017-10-26T06:09:48.024Z,67
2017-10-26T06:10:17.941Z,70
2017-10-26T06:10:47.983Z,73
2017-10-26T06:11:18.051Z,77
2017-10-26T06:11:48.114Z,80
2017-10-26T06:12:18.069Z,83
2017-10-26T06:12:48.160Z,88
2017-10-26T06:13:18.125Z,90
2017-10-26T06:13:48.197Z,92
2017-10-26T06:14:18.182Z,95
2017-10-26T06:14:48.258Z,98
2017-10-26T06:15:18.264Z,103
2017-10-26T06:15:48.365Z,105
2017-10-26T06:16:18.396Z,107
2017-10-26T06:16:48.399Z,110
2017-10-26T06:17:18.404Z,115
2017-10-26T06:17:48.419Z,118
2017-10-26T06:18:18.461Z,120
2017-10-26T06:18:48.523Z,122
2017-10-26T06:19:48.588Z,120
2017-10-26T06:20:48.597Z,122
2017-10-26T06:21:18.676Z,128
2017-10-26T06:21:48.664Z,135
2017-10-26T06:22:18.694Z,140
2017-10-26T06:22:48.715Z,145
2017-10-26T06:23:18.744Z,150
2017-10-26T06:23:48.775Z,155
2017-10-26T06:24:18.840Z,160
2017-10-26T06:24:48.850Z,163
2017-10-26T06:25:18.864Z,167
2017-10-26T06:25:48.899Z,170
2017-10-26T06:26:18.937Z,175
2017-10-26T06:26:48.966Z,178
2017-10-26T06:27:19.013Z,180
2017-10-26T06:27:49.032Z,182
2017-10-26T06:28:49.114Z,185
2017-10-26T06:29:19.174Z,187
2017-10-26T06:31:19.235Z,193
2017-10-26T06:31:49.368Z,197
2017-10-26T06:32:19.347Z,205
2017-10-26T06:32:49.413Z,210
2017-10-26T06:33:19.441Z,218
2017-10-26T06:33:49.448Z,223
2017-10-26T06:34:19.485Z,230
2017-10-26T06:34:49.547Z,238
2017-10-26T06:35:19.527Z,245
2017-10-26T06:35:49.580Z,253
2017-10-26T06:36:19.668Z,260
2017-10-26T06:36:49.610Z,268
2017-10-26T06:37:19.679Z,275
2017-10-26T06:37:49.665Z,283
2017-10-26T06:38:19.716Z,287
2017-10-26T06:38:49.740Z,295
2017-10-26T06:39:19.751Z,302
2017-10-26T06:39:50.748Z,310
2017-10-26T06:40:19.855Z,317
2017-10-26T06:40:49.845Z,320
2017-10-26T06:41:19.913Z,325
2017-10-26T06:41:49.948Z,330
2017-10-26T06:42:19.966Z,337
2017-10-26T06:42:49.990Z,343
2017-10-26T06:43:20.002Z,347
2017-10-26T06:43:50.002Z,352
2017-10-26T06:44:20.075Z,360
2017-10-26T06:44:50.143Z,370
2017-10-26T06:45:20.131Z,377
2017-10-26T06:45:50.196Z,385
2017-10-26T06:46:20.216Z,390
2017-10-26T06:46:50.320Z,392
2017-10-26T06:47:20.315Z,395
2017-10-26T06:47:50.307Z,398
2017-10-26T06:48:20.285Z,400
2017-10-26T06:49:20.347Z,403
2017-10-26T06:49:50.414Z,405
2017-10-26T06:50:20.446Z,412
2017-10-26T06:50:50.489Z,422
2017-10-26T06:51:20.517Z,430
2017-10-26T06:51:50.506Z,437
2017-10-26T06:52:20.535Z,448
2017-10-26T06:52:50.575Z,455
2017-10-26T06:53:20.589Z,465
2017-10-26T06:53:50.703Z,475
2017-10-26T06:54:20.723Z,482
2017-10-26T06:54:50.700Z,495
2017-10-26T06:55:20.746Z,510
2017-10-26T06:55:50.766Z,523
2017-10-26T06:56:20.958Z,535
2017-10-26T06:56:50.867Z,550
2017-10-26T06:57:20.832Z,562
2017-10-26T06:57:50.871Z,575
2017-10-26T06:58:20.941Z,587
2017-10-26T06:58:50.979Z,595
2017-10-26T06:59:20.977Z,608
2017-10-26T06:59:50.994Z,617
2017-10-26T07:00:21.076Z,628
2017-10-26T07:00:51.064Z,637
2017-10-26T07:01:21.117Z,647
2017-10-26T07:01:51.113Z,665
2017-10-26T07:02:21.134Z,683
2017-10-26T07:02:51.185Z,700
2017-10-26T07:03:21.248Z,712
2017-10-26T07:03:51.263Z,720
2017-10-26T07:04:21.263Z,725
2017-10-26T07:04:51.291Z,733
2017-10-26T07:05:21.383Z,745
2017-10-26T07:05:51.397Z,755
2017-10-26T07:06:21.400Z,770
2017-10-26T07:06:51.435Z,795
2017-10-26T07:07:21.495Z,815
2017-10-26T07:07:51.509Z,830
2017-10-26T07:08:21.543Z,845
2017-10-26T07:08:51.643Z,860
2017-10-26T07:09:21.615Z,877
2017-10-26T07:09:51.612Z,895
2017-10-26T07:10:21.682Z,910
2017-10-26T07:10:51.678Z,917
2017-10-26T07:11:21.694Z,932
2017-10-26T07:11:51.740Z,947
2017-10-26T07:12:21.785Z,960
2017-10-26T07:12:51.785Z,977
2017-10-26T07:13:21.819Z,1003
2017-10-26T07:13:51.900Z,1037
2017-10-26T07:14:21.876Z,1080
2017-10-26T07:14:51.905Z,1125
2017-10-26T07:15:21.946Z,1185
2017-10-26T07:15:51.961Z,1245
2017-10-26T07:16:22.036Z,1300
2017-10-26T07:16:52.036Z,1358
2017-10-26T07:17:22.084Z,1408
2017-10-26T07:17:52.092Z,1440
2017-10-26T07:18:22.120Z,1483
2017-10-26T07:18:52.175Z,1535
2017-10-26T07:19:22.230Z,1580
2017-10-26T07:19:52.229Z,1600
2017-10-26T07:20:22.289Z,1615
2017-10-26T07:20:52.331Z,1630
2017-10-26T07:21:22.321Z,1637
2017-10-26T07:21:52.404Z,1648
2017-10-26T07:22:22.421Z,1660
2017-10-26T07:22:52.448Z,1663
2017-10-26T07:23:22.500Z,1657
2017-10-26T07:23:52.563Z,1648
2017-10-26T07:24:22.538Z,1655
2017-10-26T07:24:52.552Z,1660
2017-10-26T07:25:22.624Z,1663
2017-10-26T07:25:52.652Z,1660
2017-10-26T07:26:22.644Z,1652
2017-10-26T07:26:52.699Z,1645
2017-10-26T07:27:22.675Z,1635
2017-10-26T07:27:52.786Z,1627
2017-10-26T07:28:22.780Z,1637
2017-10-26T07:28:52.848Z,1660
2017-10-26T07:29:22.830Z,1693
2017-10-26T07:29:52.898Z,1735
2017-10-26T07:30:22.903Z,1775
2017-10-26T07:30:52.949Z,1810
2017-10-26T07:31:22.951Z,1852
2017-10-26T07:31:53.009Z,1890
2017-10-26T07:32:23.048Z,1933
2017-10-26T07:32:53.054Z,1970
2017-10-26T07:33:23.096Z,2012
2017-10-26T07:33:53.203Z,2060
2017-10-26T07:34:23.161Z,2113
2017-10-26T07:34:53.142Z,2155
2017-10-26T07:35:23.211Z,2177
2017-10-26T07:35:53.209Z,2190
2017-10-26T07:36:23.279Z,2182
2017-10-26T07:36:53.315Z,2155
2017-10-26T07:37:23.349Z,2132
2017-10-26T07:37:53.346Z,2108
2017-10-26T07:38:23.413Z,2098
2017-10-26T07:38:53.494Z,2072
2017-10-26T07:39:23.459Z,2053
2017-10-26T07:39:53.499Z,2025
2017-10-26T07:40:23.498Z,2000
2017-10-26T07:40:53.572Z,1948
2017-10-26T07:41:23.537Z,1933
2017-10-26T07:41:53.584Z,1942
2017-10-26T07:42:23.605Z,1970
2017-10-26T07:42:53.669Z,2012
2017-10-26T07:43:23.678Z,2080
2017-10-26T07:43:53.710Z,2165
2017-10-26T07:44:23.728Z,2233
2017-10-26T07:44:53.749Z,2327
2017-10-26T07:45:23.814Z,2410
2017-10-26T07:45:53.818Z,2512
2017-10-26T07:46:23.870Z,2567
2017-10-26T07:46:53.894Z,2685
2017-10-26T07:47:23.908Z,2792
2017-10-26T07:47:53.950Z,2887
2017-10-26T07:48:24.054Z,2983
2017-10-26T07:48:54.064Z,3085
2017-10-26T07:49:24.073Z,3195
2017-10-26T07:49:54.059Z,3305
2017-10-26T07:50:24.091Z,3360
2017-10-26T07:50:54.127Z,3467
2017-10-26T07:51:24.199Z,3605
2017-10-26T07:51:54.178Z,3800
2017-10-26T07:52:24.221Z,3940
2017-10-26T07:52:54.309Z,4108
2017-10-26T07:53:24.290Z,4400
2017-10-26T07:53:54.418Z,4860
2017-10-26T07:54:24.382Z,5803
2017-10-26T07:54:54.446Z,7802
2017-10-26T07:55:24.407Z,5145
2017-10-26T07:55:54.450Z,9120
2017-10-26T07:56:24.529Z,10217
2017-10-26T07:56:54.561Z,10348
2017-10-26T07:57:24.532Z,10040
2017-10-26T07:57:54.614Z,9857
2017-10-26T07:58:24.637Z,9500
2017-10-26T07:58:54.861Z,9425
2017-10-26T07:59:24.685Z,8822
2017-10-26T07:59:54.744Z,4618
2017-10-26T08:00:24.716Z,4303
2017-10-26T08:00:54.739Z,8108
2017-10-26T08:01:24.771Z,7172
2017-10-26T08:01:54.806Z,7777
2017-10-26T08:02:24.862Z,6988
2017-10-26T08:02:54.861Z,5687
2017-10-26T08:03:24.901Z,7040
2017-10-26T08:03:55.017Z,4522
2017-10-26T08:04:24.954Z,5747
2017-10-26T08:04:54.980Z,5280
2017-10-26T08:05:25.018Z,5015
2017-10-26T08:05:55.092Z,5195
2017-10-26T08:06:25.095Z,5270
2017-10-26T08:06:55.104Z,5057
2017-10-26T08:07:25.199Z,4960
2017-10-26T08:07:55.169Z,5272
2017-10-26T08:08:25.208Z,5293
2017-10-26T08:08:55.295Z,5390
2017-10-26T08:09:25.271Z,5925
2017-10-26T08:09:55.323Z,5890
2017-10-26T08:10:25.368Z,6130
2017-10-26T08:10:55.363Z,6510
2017-10-26T08:11:25.435Z,9655
2017-10-26T08:11:55.487Z,5785
2017-10-26T08:12:25.480Z,5570
2017-10-26T08:12:55.513Z,5280
2017-10-26T08:13:25.573Z,5213
2017-10-26T08:13:55.653Z,5580
2017-10-26T08:14:25.621Z,5143
2017-10-26T08:14:55.659Z,5280
2017-10-26T08:15:25.671Z,6000
2017-10-26T08:15:55.734Z,6517
2017-10-26T08:16:25.731Z,11035
2017-10-26T08:16:55.752Z,11968
2017-10-26T08:17:25.813Z,10102
2017-10-26T08:17:55.852Z,9062
2017-10-26T08:18:25.858Z,6070
2017-10-26T08:18:55.968Z,6045
2017-10-26T08:19:25.924Z,10650
2017-10-26T08:19:55.975Z,8917
2017-10-26T08:20:25.974Z,5760
2017-10-26T08:20:56.031Z,6052
2017-10-26T08:21:26.066Z,5248
2017-10-26T08:21:56.030Z,5143
2017-10-26T08:22:26.111Z,5048
2017-10-26T08:22:56.222Z,4950
2017-10-26T08:23:26.173Z,4905
2017-10-26T08:23:56.287Z,4933
2017-10-26T08:24:26.236Z,4930
2017-10-26T08:24:56.287Z,4975
2017-10-26T08:25:26.243Z,5115
2017-10-26T08:25:56.329Z,5182
2017-10-26T08:26:26.372Z,5155
2017-10-26T08:26:56.347Z,5387
2017-10-26T08:27:26.379Z,5612
2017-10-26T08:27:56.464Z,5815
2017-10-26T08:28:26.476Z,7112
2017-10-26T08:28:56.498Z,5365
2017-10-26T08:29:26.508Z,5437
2017-10-26T08:29:56.587Z,5325
2017-10-26T08:30:26.598Z,5320
2017-10-26T08:30:56.606Z,5342
2017-10-26T08:31:26.621Z,5477
2017-10-26T08:31:56.686Z,5150
2017-10-26T08:32:26.691Z,5170
2017-10-26T08:32:56.708Z,5188
2017-10-26T08:33:26.785Z,5543
2017-10-26T08:33:56.826Z,5923
2017-10-26T08:34:26.828Z,6013
2017-10-26T08:34:56.864Z,5310
2017-10-26T08:35:26.864Z,5302
2017-10-26T08:35:56.892Z,5372
2017-10-26T08:36:26.942Z,5297
2017-10-26T08:36:56.957Z,5350
2017-10-26T08:37:26.986Z,5360
2017-10-26T08:37:57.012Z,5325
2017-10-26T08:38:27.048Z,5260
2017-10-26T08:38:57.103Z,5170
2017-10-26T08:39:27.145Z,5113
2017-10-26T08:39:57.144Z,5145
2017-10-26T08:40:27.200Z,5207
2017-10-26T08:40:57.213Z,5132
2017-10-26T08:41:27.269Z,5207
2017-10-26T08:41:57.320Z,5215
2017-10-26T08:42:27.305Z,5380
2017-10-26T08:42:57.367Z,5123
2017-10-26T08:43:27.387Z,5000
2017-10-26T08:43:57.415Z,5185
2017-10-26T08:44:27.482Z,4978
2017-10-26T08:44:57.464Z,4948
2017-10-26T08:45:27.518Z,5160
2017-10-26T08:45:57.563Z,5762
2017-10-26T08:46:27.551Z,4935
2017-10-26T08:46:57.589Z,4905
2017-10-26T08:47:27.664Z,4320
2017-10-26T08:47:57.668Z,4735
2017-10-26T08:48:27.671Z,3965
2017-10-26T08:48:57.745Z,3695
2017-10-26T08:49:27.747Z,3520
2017-10-26T08:49:57.754Z,3405
2017-10-26T08:50:27.779Z,3322
2017-10-26T08:50:57.855Z,3257
2017-10-26T08:51:27.845Z,3190
2017-10-26T08:51:57.880Z,3163
2017-10-26T08:52:27.920Z,3150
2017-10-26T08:52:57.952Z,3148
2017-10-26T08:53:28.026Z,3137
2017-10-26T08:53:58.055Z,3145
2017-10-26T08:54:28.042Z,3160
2017-10-26T08:54:58.089Z,3180
2017-10-26T08:55:28.093Z,3208
2017-10-26T08:55:58.139Z,3242
2017-10-26T08:56:28.173Z,3270
2017-10-26T08:56:58.183Z,3317
2017-10-26T08:57:28.258Z,3395
2017-10-26T08:57:58.248Z,3487
2017-10-26T08:58:28.315Z,3575
2017-10-26T08:58:58.408Z,3637
2017-10-26T08:59:28.338Z,3690
2017-10-26T08:59:58.438Z,3755
2017-10-26T09:00:28.457Z,3840
2017-10-26T09:00:58.479Z,3920
2017-10-26T09:01:28.529Z,4005
2017-10-26T09:01:58.552Z,4095
2017-10-26T09:02:28.557Z,4165
2017-10-26T09:02:58.605Z,4250
2017-10-26T09:03:28.633Z,4350
2017-10-26T09:03:58.676Z,4455
2017-10-26T09:04:28.703Z,4493
2017-10-26T09:04:58.740Z,4495
2017-10-26T09:05:28.762Z,4490
2017-10-26T09:05:58.746Z,4442
2017-10-26T09:06:28.813Z,4385
2017-10-26T09:06:58.836Z,4320
2017-10-26T09:07:28.886Z,4310
2017-10-26T09:07:58.900Z,4165
2017-10-26T09:08:28.935Z,4052
2017-10-26T09:08:58.949Z,3920
2017-10-26T09:09:29.020Z,3830
2017-10-26T09:09:59.037Z,3737
2017-10-26T09:10:29.061Z,3677
2017-10-26T09:10:59.088Z,3587
2017-10-26T09:11:29.139Z,3470
2017-10-26T09:11:59.108Z,3270
2017-10-26T09:12:29.164Z,3083
2017-10-26T09:12:59.192Z,2995
2017-10-26T09:13:29.271Z,3005
2017-10-26T09:13:59.282Z,3043
2017-10-26T09:14:29.393Z,3062
2017-10-26T09:14:59.360Z,3088
2017-10-26T09:15:29.371Z,3202
2017-10-26T09:15:59.404Z,3300
2017-10-26T09:16:29.400Z,3343
2017-10-26T09:16:59.461Z,3365
2017-10-26T09:17:29.445Z,3403
2017-10-26T09:17:59.516Z,3465
2017-10-26T09:18:29.561Z,3535
2017-10-26T09:18:59.574Z,3617
2017-10-26T09:19:29.633Z,3653
2017-10-26T09:19:59.597Z,3662
2017-10-26T09:20:29.685Z,3675
2017-10-26T09:20:59.712Z,3710
2017-10-26T09:21:29.703Z,3755
2017-10-26T09:21:59.737Z,3830
2017-10-26T09:22:29.773Z,3887
2017-10-26T09:22:59.786Z,3935
2017-10-26T09:23:29.820Z,3973
2017-10-26T09:23:59.856Z,4012
2017-10-26T09:24:29.961Z,4093
2017-10-26T09:24:59.906Z,4177
2017-10-26T09:25:29.954Z,4290
2017-10-26T09:26:00.051Z,4380
2017-10-26T09:26:30.023Z,4423
2017-10-26T09:27:00.052Z,4420
2017-10-26T09:27:30.064Z,4375
2017-10-26T09:28:00.163Z,4320
2017-10-26T09:28:30.135Z,4253
2017-10-26T09:29:00.223Z,4205
2017-10-26T09:29:30.303Z,4170
2017-10-26T09:30:00.726Z,4147
2017-10-26T09:30:30.273Z,4142
2017-10-26T09:31:00.859Z,4145
2017-10-26T09:32:00.780Z,4168
2017-10-26T09:32:30.439Z,4198
2017-10-26T09:33:00.790Z,4208
2017-10-26T09:33:30.504Z,4232
2017-10-26T09:34:00.756Z,4247
2017-10-26T09:34:30.593Z,4267
2017-10-26T09:35:00.574Z,4275
2017-10-26T09:36:00.692Z,4273
2017-10-26T09:36:30.639Z,4262
2017-10-26T09:37:00.867Z,4245
2017-10-26T09:37:30.685Z,4235
2017-10-26T09:38:00.703Z,4163
2017-10-26T09:38:30.807Z,4060
2017-10-26T09:39:00.796Z,4005
2017-10-26T09:39:30.867Z,3950
2017-10-26T09:40:00.864Z,3892
2017-10-26T09:40:30.859Z,3887
2017-10-26T09:41:00.890Z,3925
2017-10-26T09:41:30.934Z,3977
2017-10-26T09:42:00.995Z,4000
2017-10-26T09:42:30.992Z,4018
2017-10-26T09:43:01.156Z,4050
2017-10-26T09:43:31.050Z,4112
2017-10-26T09:44:01.074Z,4195
2017-10-26T09:44:31.200Z,4303
2017-10-26T09:45:01.541Z,4445
2017-10-26T09:45:31.186Z,4615
2017-10-26T09:46:01.199Z,4787
2017-10-26T09:46:31.239Z,4988
2017-10-26T09:47:01.261Z,5267
2017-10-26T09:47:31.291Z,5443
2017-10-26T09:48:01.377Z,5690
2017-10-26T09:48:31.421Z,6668
2017-10-26T09:49:01.384Z,6913
2017-10-26T09:49:31.499Z,7213
2017-10-26T09:50:01.448Z,7615
2017-10-26T09:50:31.543Z,7905
2017-10-26T09:51:01.507Z,8765
2017-10-26T09:51:31.601Z,9480
2017-10-26T09:52:01.584Z,9355
2017-10-26T09:52:31.606Z,9242
2017-10-26T09:53:01.695Z,9765
2017-10-26T09:53:31.725Z,9805
2017-10-26T09:54:01.709Z,9960
2017-10-26T09:54:31.803Z,9628
2017-10-26T09:55:01.804Z,9805
2017-10-26T09:55:31.855Z,10135
2017-10-26T09:56:01.881Z,10063
2017-10-26T09:56:31.902Z,10175
2017-10-26T09:57:31.948Z,10055
2017-10-26T09:58:02.005Z,9985
2017-10-26T09:58:31.981Z,10055
2017-10-26T09:59:02.060Z,9600
2017-10-26T09:59:32.126Z,9560
2017-10-26T10:00:02.135Z,8980
2017-10-26T10:00:32.138Z,8762
2017-10-26T10:01:02.165Z,8960
2017-10-26T10:01:32.198Z,9028
2017-10-26T10:02:02.229Z,8882
2017-10-26T10:02:32.237Z,8447
2017-10-26T10:03:02.307Z,8125
2017-10-26T10:03:32.274Z,7835
2017-10-26T10:04:02.400Z,7900
2017-10-26T10:04:32.452Z,7825
2017-10-26T10:05:02.420Z,7655
2017-10-26T10:05:32.419Z,7753
2017-10-26T10:06:02.470Z,8027
2017-10-26T10:06:32.470Z,7888
2017-10-26T10:07:02.510Z,7762
2017-10-26T10:07:32.589Z,7807
2017-10-26T10:08:02.569Z,7990
2017-10-26T10:08:32.661Z,8042
2017-10-26T10:09:02.673Z,7993
2017-10-26T10:09:32.720Z,7513
2017-10-26T10:10:02.698Z,7558
2017-10-26T10:10:32.711Z,7592
2017-10-26T10:11:02.779Z,7652
2017-10-26T10:11:32.778Z,7712
2017-10-26T10:12:02.809Z,7637
2017-10-26T10:12:32.849Z,7585
2017-10-26T10:13:02.864Z,7685
2017-10-26T10:13:32.907Z,7690
2017-10-26T10:14:02.987Z,7753
2017-10-26T10:14:33.009Z,7915
2017-10-26T10:15:02.991Z,8000
2017-10-26T10:15:33.024Z,7750
2017-10-26T10:16:03.051Z,7888
2017-10-26T10:16:33.093Z,7855
2017-10-26T10:17:03.184Z,7345
2017-10-26T10:17:33.143Z,7285
2017-10-26T10:18:03.188Z,7330
2017-10-26T10:18:33.257Z,7088
2017-10-26T10:19:03.236Z,7057
2017-10-26T10:19:33.316Z,7310
2017-10-26T10:20:03.351Z,7513
2017-10-26T10:20:33.340Z,7123
2017-10-26T10:21:03.383Z,6863
2017-10-26T10:21:33.448Z,6977
2017-10-26T10:22:03.442Z,6975
2017-10-26T10:22:33.497Z,6880
2017-10-26T10:23:03.508Z,6607
2017-10-26T10:23:33.513Z,6710
2017-10-26T10:24:03.595Z,6780
2017-10-26T10:24:33.614Z,6395
2017-10-26T10:25:03.609Z,6125
2017-10-26T10:25:33.637Z,5915
2017-10-26T10:26:03.740Z,6020
2017-10-26T10:26:33.728Z,6208
2017-10-26T10:27:03.733Z,5588
2017-10-26T10:27:33.793Z,6350
2017-10-26T10:28:03.787Z,6142
2017-10-26T10:28:33.811Z,5912
2017-10-26T10:29:03.872Z,5920
2017-10-26T10:29:34.007Z,5857
2017-10-26T10:30:03.907Z,5753
2017-10-26T10:30:33.938Z,5775
2017-10-26T10:31:03.971Z,5480
2017-10-26T10:31:34.009Z,5310
2017-10-26T10:32:04.035Z,5280
2017-10-26T10:32:34.085Z,5215
2017-10-26T10:33:04.095Z,5132
2017-10-26T10:33:34.126Z,5008
2017-10-26T10:34:04.169Z,5048
2017-10-26T10:34:34.255Z,5033
2017-10-26T10:35:04.247Z,5130
2017-10-26T10:35:34.313Z,5168
2017-10-26T10:36:04.279Z,5027
2017-10-26T10:36:34.372Z,5000
2017-10-26T10:37:04.391Z,4870
2017-10-26T10:37:34.389Z,4890
2017-10-26T10:38:04.445Z,4978
2017-10-26T10:38:34.495Z,4925
2017-10-26T10:39:04.538Z,4930
2017-10-26T10:39:34.544Z,4903
2017-10-26T10:40:04.558Z,4843
2017-10-26T10:40:34.624Z,4847
2017-10-26T10:41:04.635Z,4855
2017-10-26T10:41:34.658Z,4835
2017-10-26T10:42:04.705Z,4895
2017-10-26T10:42:34.753Z,4787
2017-10-26T10:43:04.766Z,4705
2017-10-26T10:43:34.771Z,4807
2017-10-26T10:44:04.856Z,4930
2017-10-26T10:44:35.112Z,4985
2017-10-26T10:45:04.891Z,5027
2017-10-26T10:45:34.900Z,5090
2017-10-26T10:46:04.952Z,5185
2017-10-26T10:46:35.003Z,5270
2017-10-26T10:47:04.991Z,5327
2017-10-26T10:47:35.010Z,5345
2017-10-26T10:48:05.088Z,5315
2017-10-26T10:48:35.126Z,5302
2017-10-26T10:49:05.133Z,5325
2017-10-26T10:49:35.244Z,5240
2017-10-26T10:50:05.141Z,5128
2017-10-26T10:50:35.227Z,5010
2017-10-26T10:51:05.258Z,5057
2017-10-26T10:51:35.274Z,5042
2017-10-26T10:52:05.269Z,4948
2017-10-26T10:52:35.424Z,4825
2017-10-26T10:53:05.402Z,4642
2017-10-26T10:53:35.426Z,4555
2017-10-26T10:54:05.438Z,4440
2017-10-26T10:54:35.518Z,4500
2017-10-26T10:55:05.468Z,4615
2017-10-26T10:55:35.493Z,4897
2017-10-26T10:56:05.538Z,4927
2017-10-26T10:56:35.557Z,5107
2017-10-26T10:57:05.572Z,4875
2017-10-26T10:57:35.661Z,4440
2017-10-26T10:58:05.645Z,4465
2017-10-26T10:58:35.737Z,4210
2017-10-26T10:59:05.709Z,3645
2017-10-26T10:59:35.755Z,3452
2017-10-26T11:00:05.771Z,3440
2017-10-26T11:00:35.800Z,3062
2017-10-26T11:01:05.830Z,3000
2017-10-26T11:01:35.863Z,3032
2017-10-26T11:02:05.890Z,3050
2017-10-26T11:02:35.960Z,3268
2017-10-26T11:03:05.941Z,3430
2017-10-26T11:03:35.978Z,3435
2017-10-26T11:04:06.009Z,3345
2017-10-26T11:04:36.047Z,3482
2017-10-26T11:05:06.182Z,3715
2017-10-26T11:05:36.101Z,3905
2017-10-26T11:06:06.140Z,3775
2017-10-26T11:06:36.223Z,3800
2017-10-26T11:07:06.244Z,3880
2017-10-26T11:07:36.230Z,3857
2017-10-26T11:08:06.292Z,3850
2017-10-26T11:08:36.307Z,3645
2017-10-26T11:09:06.341Z,3445
2017-10-26T11:09:36.407Z,3400
2017-10-26T11:10:06.437Z,3145
2017-10-26T11:10:36.459Z,2845
2017-10-26T11:11:06.460Z,2805
2017-10-26T11:11:36.497Z,2690
2017-10-26T11:12:06.564Z,2635
2017-10-26T11:12:36.564Z,2512
2017-10-26T11:13:06.619Z,2492
2017-10-26T11:13:36.914Z,2353
2017-10-26T11:14:06.641Z,2315
2017-10-26T11:14:36.673Z,2540
2017-10-26T11:15:06.738Z,2747
2017-10-26T11:15:36.730Z,2795
2017-10-26T11:16:06.747Z,2848
2017-10-26T11:16:36.778Z,2820
2017-10-26T11:17:06.811Z,2760
2017-10-26T11:17:36.887Z,2765
2017-10-26T11:18:06.887Z,2720
2017-10-26T11:18:36.908Z,2530
2017-10-26T11:19:06.943Z,2512
2017-10-26T11:19:36.961Z,2635
2017-10-26T11:20:07.064Z,2705
2017-10-26T11:20:37.179Z,2833
2017-10-26T11:21:07.050Z,3015
2017-10-26T11:21:37.095Z,3002
2017-10-26T11:22:07.167Z,2767
2017-10-26T11:22:37.158Z,2683
2017-10-26T11:23:07.172Z,2875
2017-10-26T11:23:37.274Z,3125
2017-10-26T11:24:07.300Z,3260
2017-10-26T11:24:37.270Z,3623
2017-10-26T11:25:07.318Z,4288
2017-10-26T11:25:37.398Z,4573
2017-10-26T11:26:07.421Z,4517
2017-10-26T11:26:37.405Z,5548
2017-10-26T11:27:07.452Z,5755
2017-10-26T11:27:37.496Z,5132
2017-10-26T11:28:07.533Z,4190
2017-10-26T11:28:37.590Z,4060
2017-10-26T11:29:07.550Z,3930
2017-10-26T11:29:37.631Z,3973
2017-10-26T11:30:07.732Z,4735
2017-10-26T11:30:37.707Z,4285
2017-10-26T11:31:07.728Z,4127
2017-10-26T11:31:37.734Z,4490
2017-10-26T11:32:07.774Z,5188
2017-10-26T11:32:37.767Z,4888
2017-10-26T11:33:07.831Z,3892
2017-10-26T11:33:37.900Z,4480
2017-10-26T11:34:07.904Z,4860
2017-10-26T11:34:37.892Z,5325
2017-10-26T11:35:08.026Z,5638
2017-10-26T11:35:37.997Z,6028
2017-10-26T11:36:08.039Z,7410
2017-10-26T11:37:08.088Z,6113
2017-10-26T11:37:38.108Z,5692
2017-10-26T11:38:08.140Z,5430
2017-10-26T11:38:38.247Z,5383
2017-10-26T11:39:08.211Z,5147
2017-10-26T11:39:38.223Z,4543
2017-10-26T11:40:08.337Z,4745
2017-10-26T11:40:38.297Z,5560
2017-10-26T11:41:08.318Z,5650
2017-10-26T11:41:38.391Z,4877
2017-10-26T11:42:08.396Z,4975
2017-10-26T11:42:38.433Z,4890
2017-10-26T11:43:08.488Z,7080
2017-10-26T11:43:38.440Z,6315
2017-10-26T11:44:08.479Z,4445
2017-10-26T11:44:38.550Z,3758
2017-10-26T11:45:08.599Z,4130
2017-10-26T11:45:38.559Z,4080
2017-10-26T11:46:08.599Z,3418
2017-10-26T11:46:38.629Z,3163
2017-10-26T11:47:08.660Z,3347
2017-10-26T11:47:38.699Z,3328
2017-10-26T11:48:08.748Z,3367
2017-10-26T11:48:38.747Z,3360
2017-10-26T11:49:08.780Z,3380
2017-10-26T11:49:38.851Z,3645
2017-10-26T11:50:08.872Z,4140
2017-10-26T11:50:38.869Z,4288
2017-10-26T11:51:08.934Z,5042
2017-10-26T11:51:38.935Z,6368
2017-10-26T11:52:08.961Z,4708
2017-10-26T11:52:39.003Z,4783
2017-10-26T11:53:09.025Z,4840
2017-10-26T11:53:39.147Z,5048
2017-10-26T11:54:09.082Z,4648
2017-10-26T11:54:39.176Z,4448
2017-10-26T11:55:09.152Z,4435
2017-10-26T11:55:39.237Z,4418
2017-10-26T11:56:09.285Z,4468
2017-10-26T11:56:39.261Z,4528
2017-10-26T11:57:09.297Z,4513
2017-10-26T11:57:39.351Z,4552
2017-10-26T11:58:09.329Z,4592
2017-10-26T11:58:39.362Z,4915
2017-10-26T11:59:09.440Z,5237
2017-10-26T11:59:39.429Z,4995
2017-10-26T12:00:09.533Z,4897
2017-10-26T12:00:39.555Z,4765
2017-10-26T12:01:09.549Z,4640
2017-10-26T12:01:39.619Z,4453
2017-10-26T12:02:09.665Z,4960
2017-10-26T12:02:39.611Z,5195
2017-10-26T12:03:09.657Z,4622
2017-10-26T12:03:39.674Z,6505
2017-10-26T12:04:09.766Z,8365
2017-10-26T12:04:39.753Z,5668
2017-10-26T12:05:09.871Z,6160
2017-10-26T12:05:39.863Z,5455
2017-10-26T12:06:09.825Z,5833
2017-10-26T12:06:39.860Z,6380
2017-10-26T12:07:09.889Z,6755
2017-10-26T12:07:39.913Z,6670
2017-10-26T12:08:09.950Z,6953
2017-10-26T12:08:40.019Z,7828
2017-10-26T12:09:10.048Z,7793
2017-10-26T12:09:40.098Z,7517
2017-10-26T12:10:10.134Z,6930
2017-10-26T12:10:40.142Z,6512
2017-10-26T12:11:10.134Z,6362
2017-10-26T12:11:40.175Z,6323
2017-10-26T12:12:10.206Z,6480
2017-10-26T12:12:40.268Z,6600
2017-10-26T12:13:10.260Z,6472
2017-10-26T12:13:40.351Z,6212
2017-10-26T12:14:10.357Z,5998
2017-10-26T12:14:40.344Z,5840
2017-10-26T12:15:10.934Z,5670
2017-10-26T12:15:40.458Z,5460
2017-10-26T12:16:10.467Z,5383
2017-10-26T12:16:40.537Z,5270
2017-10-26T12:17:10.573Z,5302
2017-10-26T12:17:40.561Z,5415
2017-10-26T12:18:10.580Z,5623
2017-10-26T12:18:40.760Z,5807
2017-10-26T12:19:10.678Z,5920
2017-10-26T12:19:40.653Z,6010
2017-10-26T12:20:10.777Z,6088
2017-10-26T12:20:40.818Z,6083
2017-10-26T12:21:10.795Z,5985
2017-10-26T12:21:40.795Z,5725
2017-10-26T12:22:10.866Z,5423
2017-10-26T12:22:40.866Z,5387
2017-10-26T12:23:10.909Z,5512
2017-10-26T12:23:43.454Z,5738
2017-10-26T12:24:10.984Z,5993
2017-10-26T12:24:41.015Z,6725
2017-10-26T12:25:11.112Z,7213
2017-10-26T12:25:41.095Z,6315
2017-10-26T12:26:11.111Z,6490
2017-10-26T12:26:41.168Z,5990
2017-10-26T12:27:11.188Z,4800
2017-10-26T12:27:41.221Z,4703
2017-10-26T12:28:11.220Z,5185
2017-10-26T12:28:41.251Z,5803
2017-10-26T12:29:11.299Z,6345
2017-10-26T12:29:41.270Z,7007
2017-10-26T12:30:11.375Z,7150
2017-10-26T12:30:41.407Z,9760
2017-10-26T12:31:11.424Z,5995
2017-10-26T12:31:41.455Z,5267
2017-10-26T12:32:11.493Z,4480
2017-10-26T12:32:41.478Z,4085
2017-10-26T12:33:11.532Z,4025
2017-10-26T12:33:41.596Z,4288
2017-10-26T12:34:11.570Z,4085
2017-10-26T12:34:41.582Z,3913
2017-10-26T12:35:11.760Z,3910
2017-10-26T12:35:41.662Z,3840
2017-10-26T12:36:11.718Z,3925
2017-10-26T12:36:41.743Z,3992
2017-10-26T12:37:11.727Z,4050
2017-10-26T12:37:41.764Z,3917
2017-10-26T12:38:11.813Z,3695
2017-10-26T12:38:41.884Z,3660
2017-10-26T12:39:11.856Z,3728
2017-10-26T12:39:41.883Z,3592
2017-10-26T12:40:11.953Z,3398
2017-10-26T12:40:42.004Z,3270
2017-10-26T12:41:11.981Z,3285
2017-10-26T12:41:42.086Z,3265
2017-10-26T12:42:42.070Z,3285
2017-10-26T12:43:12.141Z,3085
2017-10-26T12:43:42.141Z,2850
2017-10-26T12:44:12.176Z,2798
2017-10-26T12:44:42.240Z,2740
2017-10-26T12:45:12.310Z,2720
2017-10-26T12:45:42.257Z,2432
2017-10-26T12:46:12.288Z,2370